Time;durP1;ratioP1;P1;durP2;ratioP2;P2;SDS_P1;SDS_P2;PMS_P1;PMS_P2;Temp;Humidity;BMP_temperature;BMP_pressure;BME280_temperature;BME280_humidity;BME280_pressure;Samples;Min_cycle;Max_cycle;Signal;HPM_P1;HPM_P2
2023/05/18 05:02:17;;;;;;;;;3.67;3.67;;;;;14.88;52.68;62678.06;6303438;22;45511;-82
2023/05/18 05:04:43;;;;;;;;;5.00;2.00;;;;;14.75;52.55;62613.97;6365502;22;45350;-82
2023/05/18 05:07:08;;;;;;;;;6.00;4.00;;;;;14.71;52.71;62452.84;6367655;22;45388;-82
2023/05/18 05:09:34;;;;;;;;;4.67;4.00;;;;;14.81;52.52;62458.38;6365237;22;67758;-82
2023/05/18 05:11:59;;;;;;;;;3.67;3.67;;;;;14.66;52.88;62242.81;6367537;22;45438;-82
2023/05/18 05:14:25;;;;;;;;;5.00;3.00;;;;;14.86;52.81;62346.84;6367698;22;45500;-82
2023/05/18 05:16:50;;;;;;;;;8.67;4.00;;;;;14.89;52.91;62325.63;6366968;22;45442;-82
2023/05/18 05:19:15;;;;;;;;;5.00;3.33;;;;;14.85;52.74;62215.53;6366692;22;46145;-82
2023/05/18 05:21:41;;;;;;;;;7.00;4.33;;;;;14.75;52.76;62104.28;6366481;22;45331;-82
2023/05/18 05:24:07;;;;;;;;;4.33;3.67;;;;;14.65;52.72;62061.59;6367943;22;45733;-82
2023/05/18 05:26:32;;;;;;;;;5.00;3.33;;;;;14.82;52.77;62124.59;6367233;22;45491;-82
2023/05/18 05:28:58;;;;;;;;;4.00;4.00;;;;;14.80;52.81;61960.31;6367977;22;47056;-82
2023/05/18 05:31:24;;;;;;;;;5.00;3.67;;;;;14.94;52.84;61857.91;6338780;22;45319;-82
2023/05/18 05:33:49;;;;;;;;;4.00;4.00;;;;;14.95;52.96;61643.66;6367376;22;45351;-82
2023/05/18 05:36:14;;;;;;;;;5.00;5.00;;;;;14.28;53.05;61438.09;6368740;22;45808;-82
2023/05/18 05:38:41;;;;;;;;;4.33;3.00;;;;;14.97;52.83;61561.28;6367257;22;45629;-82
2023/05/18 05:41:06;;;;;;;;;4.00;4.00;;;;;14.92;52.78;61589.97;6367443;22;45366;-82
2023/05/18 05:43:31;;;;;;;;;3.33;3.33;;;;;14.79;52.91;61451.69;6367746;22;45731;-82
2023/05/18 05:45:57;;;;;;;;;4.00;3.33;;;;;15.02;52.93;61372.06;6367325;22;45484;-82
2023/05/18 05:48:22;;;;;;;;;4.33;3.33;;;;;14.86;52.62;61410.81;6367788;22;46131;-82
2023/05/18 05:50:47;;;;;;;;;4.00;4.00;;;;;15.05;52.74;61276.91;6366324;22;45378;-82
2023/05/18 05:53:16;;;;;;;;;7.33;4.00;;;;;15.08;52.66;61327.44;6366457;22;46236;-82
2023/05/18 05:55:42;;;;;;;;;4.33;4.33;;;;;14.91;52.88;61095.13;6366582;22;45501;-82
2023/05/18 05:58:08;;;;;;;;;4.00;4.00;;;;;15.12;52.59;61090.31;6367620;22;45436;-82
2023/05/18 06:00:34;;;;;;;;;3.67;3.00;;;;;14.96;52.58;60988.81;6366300;22;45354;-82
2023/05/18 06:02:59;;;;;;;;;6.33;4.67;;;;;15.06;52.78;60860.16;6366722;22;45416;-82
2023/05/18 06:05:24;;;;;;;;;5.33;4.33;;;;;15.18;52.78;60750.56;6366619;22;45478;-82
2023/05/18 06:07:50;;;;;;;;;6.67;5.00;;;;;15.02;52.77;60611.97;6366358;22;46074;-83
2023/05/18 06:10:15;;;;;;;;;3.00;3.00;;;;;14.97;52.74;60453.09;6338282;22;45940;-82
2023/05/18 06:12:40;;;;;;;;;3.00;3.00;;;;;15.28;52.86;60420.31;6365500;22;45644;-82
2023/05/18 06:15:06;;;;;;;;;4.33;4.00;;;;;15.30;52.94;60260.78;6338455;22;45368;-82
2023/05/18 06:17:32;;;;;;;;;3.67;3.67;;;;;15.33;52.79;60247.97;6366033;22;46272;-82
2023/05/18 06:19:57;;;;;;;;;6.67;5.33;;;;;15.33;52.48;60282.53;6367136;22;45353;-82
2023/05/18 06:22:23;;;;;;;;;7.00;4.00;;;;;15.39;52.38;60246.28;6367233;22;45339;-82
2023/05/18 06:24:49;;;;;;;;;5.00;5.00;;;;;15.43;52.31;60412.16;6367722;22;45534;-82
2023/05/18 06:27:15;;;;;;;;;4.67;3.33;;;;;15.42;52.18;60296.75;6366577;22;46190;-82
2023/05/18 06:29:41;;;;;;;;;4.00;4.00;;;;;15.51;52.66;60050.91;6366584;22;45273;-82
2023/05/18 06:32:06;;;;;;;;;4.00;4.00;;;;;15.51;52.40;59846.16;6367532;22;45307;-82
2023/05/18 06:34:32;;;;;;;;;5.00;4.00;;;;;15.56;52.57;59813.59;6367440;22;45444;-82
2023/05/18 06:36:57;;;;;;;;;3.00;3.00;;;;;15.65;52.49;59916.06;6367291;22;45330;-82
2023/05/18 06:39:23;;;;;;;;;4.00;2.33;;;;;15.04;52.14;59949.72;6366830;22;45314;-82
2023/05/18 06:41:50;;;;;;;;;7.67;3.00;;;;;15.55;52.17;59724.81;6367134;22;45419;-82
2023/05/18 06:44:16;;;;;;;;;6.33;4.67;;;;;15.61;52.20;59755.50;6367922;22;45400;-82
2023/05/18 06:46:41;;;;;;;;;3.67;3.67;;;;;15.55;52.08;59666.31;6367596;22;47066;-82
2023/05/18 06:49:07;;;;;;;;;1.33;1.33;;;;;15.86;51.86;59836.34;6338476;22;45662;-82
2023/05/18 06:51:32;;;;;;;;;7.67;6.67;;;;;15.89;51.62;59836.28;6366953;22;45315;-83
2023/05/18 06:53:57;;;;;;;;;6.33;4.00;;;;;15.90;51.64;59856.47;6367211;22;45451;-82
2023/05/18 06:56:23;;;;;;;;;3.00;3.00;;;;;15.82;51.32;59914.66;6367135;22;45363;-82
2023/05/18 06:58:48;;;;;;;;;7.00;3.33;;;;;16.01;52.02;59726.91;6367181;22;45377;-82
2023/05/18 07:01:14;;;;;;;;;4.00;4.00;;;;;15.98;51.37;59691.31;6367288;22;45324;-82
2023/05/18 07:03:39;;;;;;;;;3.00;3.00;;;;;16.04;51.33;59873.72;6368325;22;45374;-82
2023/05/18 07:06:05;;;;;;;;;5.00;4.00;;;;;16.13;51.26;59855.97;6367503;22;46027;-82
2023/05/18 07:08:31;;;;;;;;;3.67;3.67;;;;;16.11;51.07;59781.47;6366936;22;45262;-82
2023/05/18 07:10:58;;;;;;;;;4.33;3.00;;;;;16.09;51.50;59620.25;6366295;22;45413;-82
2023/05/18 07:13:24;;;;;;;;;4.00;4.00;;;;;16.06;51.07;59489.41;6366562;22;45346;-82
2023/05/18 07:15:49;;;;;;;;;5.00;5.00;;;;;16.31;51.65;59418.91;6365721;22;45921;-82
2023/05/18 07:18:15;;;;;;;;;3.00;3.00;;;;;16.34;50.97;59288.91;6361489;22;45471;-82
2023/05/18 07:20:40;;;;;;;;;3.00;3.00;;;;;16.44;51.17;59503.72;6365280;22;45420;-82
2023/05/18 07:23:06;;;;;;;;;3.00;3.00;;;;;16.48;50.86;59582.41;6366841;22;45424;-82
2023/05/18 07:25:31;;;;;;;;;2.00;2.00;;;;;16.23;51.07;59528.28;6364366;22;45644;-82
2023/05/18 07:27:57;;;;;;;;;2.00;2.00;;;;;16.59;50.86;59414.84;6364936;22;45416;-82
2023/05/18 07:30:23;;;;;;;;;4.00;4.00;;;;;16.46;50.66;59377.97;6365752;22;45353;-82
2023/05/18 07:32:49;;;;;;;;;4.33;3.33;;;;;16.55;51.05;59246.13;6366869;22;45373;-83
2023/05/18 07:35:15;;;;;;;;;3.33;3.33;;;;;16.51;50.54;59625.47;6366174;22;47367;-83
2023/05/18 07:37:41;;;;;;;;;2.00;2.00;;;;;16.79;50.70;59672.66;6365600;22;45353;-82
2023/05/18 07:40:08;;;;;;;;;3.33;2.00;;;;;16.85;50.56;59537.13;6366938;22;45701;-82
2023/05/18 07:42:34;;;;;;;;;3.33;3.00;;;;;16.89;50.78;59229.53;6368891;22;45371;-83
2023/05/18 07:44:59;;;;;;;;;2.00;2.00;;;;;16.72;50.53;59058.03;6367050;22;46513;-82
2023/05/18 07:47:24;;;;;;;;;3.00;3.00;;;;;16.97;50.06;59367.81;6367614;22;45306;-82
2023/05/18 07:49:50;;;;;;;;;4.00;3.00;;;;;16.96;50.25;59489.38;6367184;22;45329;-82
2023/05/18 07:52:15;;;;;;;;;3.67;3.00;;;;;16.97;49.96;59450.44;6339325;22;45469;-82
2023/05/18 07:54:41;;;;;;;;;2.33;2.33;;;;;17.12;49.90;59548.06;6367120;22;46804;-82
2023/05/18 07:57:06;;;;;;;;;3.00;3.00;;;;;17.15;49.96;59866.25;6366850;22;45473;-82
2023/05/18 07:59:31;;;;;;;;;2.67;2.67;;;;;17.20;49.63;59868.28;6367247;22;45356;-81
2023/05/18 08:01:58;;;;;;;;;5.00;2.00;;;;;17.26;49.91;59669.72;6367241;22;45572;-82
2023/05/18 08:04:24;;;;;;;;;3.00;3.00;;;;;17.18;50.10;59578.25;6365999;22;45476;-81
2023/05/18 08:06:49;;;;;;;;;3.33;3.00;;;;;17.36;49.21;60028.94;6366425;22;45309;-81
2023/05/18 08:09:15;;;;;;;;;3.33;2.00;;;;;17.30;48.77;60223.25;6367905;22;45540;-84
2023/05/18 08:11:41;;;;;;;;;3.67;3.00;;;;;17.44;48.85;60148.78;6366195;22;45287;-84
2023/05/18 08:14:06;;;;;;;;;4.33;3.00;;;;;17.55;48.77;60317.69;6366828;22;47005;-84
2023/05/18 08:16:35;;;;;;;;;31.67;27.67;;;;;17.41;48.73;60215.53;6366409;22;45376;-83
2023/05/18 08:19:02;;;;;;;;;4.33;2.33;;;;;17.66;48.73;60165.94;6366082;22;45484;-83
2023/05/18 08:21:28;;;;;;;;;4.00;4.00;;;;;17.73;49.13;60071.84;6366038;22;45560;-82
2023/05/18 08:23:54;;;;;;;;;3.00;3.00;;;;;17.79;49.09;60088.75;6366086;22;46141;-83
2023/05/18 08:26:19;;;;;;;;;3.00;2.67;;;;;17.69;48.89;59934.75;6338880;22;45324;-82
2023/05/18 08:28:44;;;;;;;;;4.00;3.00;;;;;17.89;48.90;60003.13;6368252;22;45384;-82
2023/05/18 08:31:11;;;;;;;;;3.00;3.00;;;;;17.91;48.20;60431.81;6366490;22;45466;-82
2023/05/18 08:33:36;;;;;;;;;2.67;2.67;;;;;17.96;47.56;60754.78;6366244;22;46201;-83
2023/05/18 08:36:02;;;;;;;;;3.00;3.00;;;;;18.01;47.87;60992.38;6363071;22;45418;-80
2023/05/18 08:38:28;;;;;;;;;4.00;3.00;;;;;17.79;47.44;61111.09;6361880;22;45569;-82
2023/05/18 08:41:21;;;;;;;;;4.00;3.00;;;;;18.09;48.10;61088.47;6364800;22;45498;-82
2023/05/18 08:43:53;;;;;;;;;4.00;3.00;;;;;17.84;47.73;61257.38;6363000;22;47422;-82
2023/05/18 08:46:30;;;;;;;;;2.00;2.00;;;;;18.04;47.16;62071.97;6366273;22;45666;-81
2023/05/18 08:48:58;;;;;;;;;3.67;3.00;;;;;18.18;47.20;61957.72;6366878;22;45357;-82
2023/05/18 08:51:27;;;;;;;;;2.00;2.00;;;;;18.26;46.88;61966.28;6365940;22;45681;-82
2023/05/18 08:53:53;;;;;;;;;4.00;3.00;;;;;18.26;47.32;61966.28;6364765;22;45461;-82
2023/05/18 08:56:21;;;;;;;;;2.67;2.00;;;;;18.47;46.66;62101.16;6366155;22;45409;-82
2023/05/18 08:58:49;;;;;;;;;4.33;3.00;;;;;18.70;46.53;61726.38;6366842;22;45433;-83
2023/05/18 09:01:17;;;;;;;;;2.00;2.00;;;;;18.97;46.04;61399.53;6366551;22;45366;-85
2023/05/18 09:03:45;;;;;;;;;3.00;3.00;;;;;19.53;45.01;61470.44;6368032;22;45816;-83
2023/05/18 09:06:11;;;;;;;;;3.67;3.00;;;;;20.29;44.59;61300.53;6365055;22;45235;-84
2023/05/18 09:08:37;;;;;;;;;2.33;2.33;;;;;20.83;44.28;61155.13;6367147;22;45819;-84
2023/05/18 09:11:03;;;;;;;;;3.33;2.33;;;;;21.66;42.54;62044.75;6364957;22;45336;-83
2023/05/18 09:13:29;;;;;;;;;1.67;1.67;;;;;22.35;42.34;62579.31;6367137;22;46205;-83
2023/05/18 09:15:54;;;;;;;;;3.00;1.67;;;;;22.85;41.16;63733.03;6367218;22;45461;-83
2023/05/18 09:18:20;;;;;;;;;2.00;2.00;;;;;23.51;40.60;64343.25;6367139;22;45423;-85
2023/05/18 09:20:46;;;;;;;;;2.67;2.67;;;;;24.13;39.38;65522.50;6367837;22;45350;-85
2023/05/18 09:23:12;;;;;;;;;3.67;3.67;;;;;24.58;38.72;66577.88;6365116;22;46250;-84
2023/05/18 09:25:43;;;;;;;;;6.00;3.00;;;;;25.38;37.99;67684.19;6367565;22;45472;-85
2023/05/18 09:28:13;;;;;;;;;4.00;4.00;;;;;25.69;37.91;68044.63;6366569;22;45352;-85
2023/05/18 09:30:46;;;;;;;;;2.67;2.67;;;;;26.25;36.27;69402.03;6363671;22;45461;-85
2023/05/18 09:33:16;;;;;;;;;3.00;3.00;;;;;26.82;36.17;70433.78;6365483;22;45952;-84
2023/05/18 09:35:44;;;;;;;;;5.00;3.00;;;;;26.98;35.02;70694.16;6337517;22;45552;-81
2023/05/18 09:38:11;;;;;;;;;2.00;2.00;;;;;27.64;35.05;71177.34;6366750;22;45794;-81
2023/05/18 09:40:36;;;;;;;;;4.33;4.00;;;;;27.99;34.73;71551.88;6367541;22;45580;-83
2023/05/18 09:43:06;;;;;;;;;3.00;3.00;;;;;28.27;35.11;72025.84;6367124;22;46542;-81
2023/05/18 09:45:31;;;;;;;;;3.67;3.67;;;;;28.53;34.55;72201.56;6366568;22;45337;-82
2023/05/18 09:47:57;;;;;;;;;4.67;4.00;;;;;28.77;33.29;72341.66;6366394;22;45357;-81
2023/05/18 09:50:23;;;;;;;;;4.00;3.00;;;;;28.94;32.79;72400.19;6365764;22;45346;-81
2023/05/18 09:52:49;;;;;;;;;4.00;4.00;;;;;28.89;32.27;72426.72;6364712;22;46362;-82
2023/05/18 09:55:16;;;;;;;;;3.00;3.00;;;;;29.08;32.23;72622.00;6338846;22;45378;-83
2023/05/18 09:57:49;;;;;;;;;5.33;5.33;;;;;29.26;32.32;72477.38;6366454;22;45425;-82
2023/05/18 10:00:16;;;;;;;;;4.75;3.25;;;;;29.30;31.31;72449.00;6365824;22;45506;-82
2023/05/18 10:02:47;;;;;;;;;5.00;5.00;;;;;29.63;30.88;72241.59;6366166;22;45940;-81
2023/05/18 10:05:32;;;;;;;;;6.00;4.33;;;;;29.21;31.61;72485.44;6363543;22;45310;-86
2023/05/18 10:08:30;;;;;;;;;6.00;3.00;;;;;28.94;30.37;71874.97;6337548;22;45495;-88
2023/05/18 10:10:56;;;;;;;;;4.33;4.33;;;;;28.94;31.13;72168.59;6365227;22;45490;-84
2023/05/18 10:13:25;;;;;;;;;3.33;3.33;;;;;29.42;30.87;72139.34;6366651;22;46280;-85
2023/05/18 10:15:54;;;;;;;;;3.67;3.33;;;;;30.00;30.14;71960.66;6366965;22;45338;-84
2023/05/18 10:18:25;;;;;;;;;3.00;3.00;;;;;29.90;29.90;71847.41;6366955;22;45703;-83
2023/05/18 10:20:54;;;;;;;;;4.67;4.67;;;;;30.25;28.84;71718.38;6367260;22;45430;-84
2023/05/18 10:23:20;;;;;;;;;4.00;4.00;;;;;30.22;28.86;71548.16;6367132;22;46815;-84
2023/05/18 10:25:49;;;;;;;;;5.33;5.33;;;;;29.97;28.72;71555.81;6338585;22;45815;-85
2023/05/18 10:28:26;;;;;;;;;2.33;2.33;;;;;30.44;29.09;71513.78;6366664;22;45389;-86
2023/05/18 10:31:24;;;;;;;;;5.33;4.33;;;;;29.86;28.37;71240.78;6367548;22;45448;-86
2023/05/18 10:33:51;;;;;;;;;3.67;3.67;;;;;29.79;28.56;71177.09;6237381;22;45582;-86
2023/05/18 10:36:31;;;;;;;;;6.00;5.00;;;;;30.08;29.33;71230.84;6238458;22;45523;-85
2023/05/18 10:39:06;;;;;;;;;4.00;4.00;;;;;30.00;28.83;71033.47;6239010;22;45500;-86
2023/05/18 10:41:35;;;;;;;;;4.00;4.00;;;;;29.93;28.27;70994.97;6239115;22;45728;-85
2023/05/18 10:44:02;;;;;;;;;5.33;4.00;;;;;29.29;28.95;70899.44;6238963;22;45403;-86
2023/05/18 10:47:10;;;;;;;;;7.00;4.33;;;;;29.73;28.54;70834.34;6239867;22;45476;-85
2023/05/18 10:49:36;;;;;;;;;4.00;4.00;;;;;29.11;27.81;70739.91;6238791;22;45391;-86
2023/05/18 10:52:02;;;;;;;;;4.67;4.00;;;;;29.92;27.96;70804.91;6235134;22;45696;-84
2023/05/18 10:54:29;;;;;;;;;5.00;5.00;;;;;29.79;27.79;70825.84;6236113;22;46173;-88
2023/05/18 10:56:55;;;;;;;;;5.33;5.00;;;;;30.31;27.69;70805.09;6237054;22;45482;-86
2023/05/18 10:59:26;;;;;;;;;4.00;4.00;;;;;30.08;26.86;70829.72;6238021;22;45776;-85
2023/05/18 11:01:55;;;;;;;;;6.00;4.33;;;;;30.43;26.45;70579.38;6234076;22;45374;-89
2023/05/18 11:04:30;;;;;;;;;5.33;5.33;;;;;30.76;25.99;70623.41;6238602;22;45911;-87
2023/05/18 11:10:36;;;;;;;;;5.33;5.33;;;;;31.59;25.03;70504.53;6259267;22;45407;-88
2023/05/18 11:13:02;;;;;;;;;7.33;3.33;;;;;31.75;25.32;70414.97;6282147;22;45387;-90
2023/05/18 11:15:58;;;;;;;;;4.00;4.00;;;;;31.84;25.20;70244.59;6365834;22;46246;-90
2023/05/18 11:18:51;;;;;;;;;3.00;3.00;;;;;32.24;24.93;70304.47;6366520;22;45315;-89
2023/05/18 11:21:22;;;;;;;;;3.00;3.00;;;;;32.23;24.79;70191.63;6367476;22;45377;-89
2023/05/18 11:24:28;;;;;;;;;4.00;4.00;;;;;32.45;24.08;70085.34;6338300;22;45674;-86
2023/05/18 11:27:10;;;;;;;;;4.67;4.67;;;;;32.10;23.55;69897.50;6366536;22;46292;-88
2023/05/18 11:29:47;;;;;;;;;4.67;4.00;;;;;32.54;25.02;70066.59;6367131;22;45931;-87
2023/05/18 11:32:31;;;;;;;;;3.00;3.00;;;;;31.71;24.36;69816.59;6367002;22;45374;-86
2023/05/18 11:34:57;;;;;;;;;7.00;3.67;;;;;32.36;24.33;69908.75;6365782;22;45433;-85
2023/05/18 11:37:50;;;;;;;;;4.00;4.00;;;;;32.09;24.09;69778.63;6364036;22;46371;-88
2023/05/18 11:40:43;;;;;;;;;4.67;3.33;;;;;31.87;23.86;69818.66;6337547;22;45424;-87
2023/05/18 11:43:30;;;;;;;;;3.00;3.00;;;;;31.70;24.41;69842.78;6367401;22;45513;-88
2023/05/18 11:45:57;;;;;;;;;3.33;3.33;;;;;31.01;25.44;69833.31;6365389;22;45331;-84
2023/05/18 11:48:24;;;;;;;;;5.33;5.33;;;;;31.39;24.94;69915.72;6365494;22;45907;-86
2023/05/18 11:50:53;;;;;;;;;4.67;3.67;;;;;31.12;24.63;69807.59;6366660;22;45539;-87
2023/05/18 11:53:22;;;;;;;;;2.00;2.00;;;;;30.76;24.60;69842.28;6337649;22;45511;-86
2023/05/18 11:55:51;;;;;;;;;4.00;4.00;;;;;31.01;24.90;69803.25;6362352;22;45568;-93
2023/05/18 11:58:48;;;;;;;;;3.67;3.67;;;;;30.28;24.88;69786.81;6372930;22;45431;-93
2023/05/18 12:01:14;;;;;;;;;5.33;4.00;;;;;30.68;24.89;69770.53;6356169;22;45347;-92
2023/05/18 12:03:39;;;;;;;;;4.00;1.67;;;;;30.50;25.36;69877.38;6342346;22;45391;-93
2023/05/18 12:06:06;;;;;;;;;2.75;2.75;;;;;30.76;25.14;69923.63;6375610;22;45350;-96
2023/05/18 12:08:31;;;;;;;;;4.00;4.00;;;;;29.73;25.33;69782.34;6341797;22;47934;-94
2023/05/18 12:11:10;;;;;;;;;4.00;4.00;;;;;29.69;25.22;69646.75;6377822;22;45428;-97
2023/05/18 12:13:36;;;;;;;;;3.33;3.00;;;;;29.94;25.75;69776.22;6349856;22;45283;-94
2023/05/18 12:16:02;;;;;;;;;4.00;4.00;;;;;30.39;25.30;69755.06;6344504;22;45492;-96
2023/05/18 12:18:28;;;;;;;;;2.67;2.33;;;;;29.85;25.15;69733.38;6357053;22;47024;-96
2023/05/18 12:20:54;;;;;;;;;5.00;4.00;;;;;29.37;25.41;69705.16;6351019;22;45374;-96
2023/05/18 12:23:19;;;;;;;;;5.00;3.00;;;;;29.12;25.66;69721.66;6338787;22;45381;-94
2023/05/18 12:25:45;;;;;;;;;4.00;4.00;;;;;29.10;25.78;69801.56;6370182;22;45396;-95
2023/05/18 12:28:10;;;;;;;;;2.67;2.67;;;;;28.85;25.98;69812.56;6343625;22;46910;-93
2023/05/18 12:30:37;;;;;;;;;41.00;22.67;;;;;29.15;25.80;69787.88;6345847;22;45399;-92
2023/05/18 12:33:06;;;;;;;;;3.00;3.00;;;;;28.58;26.71;69716.75;6355840;22;44769;-96
2023/05/18 12:35:34;;;;;;;;;2.33;2.00;;;;;27.64;26.27;69687.88;6366615;22;45436;-96
2023/05/18 12:38:00;;;;;;;;;5.33;5.33;;;;;28.20;26.13;69813.44;6354727;22;47062;-95
2023/05/18 12:40:27;;;;;;;;;3.67;3.67;;;;;27.87;25.99;69625.66;6346564;22;45601;-96
2023/05/18 12:43:02;;;;;;;;;3.00;3.00;;;;;27.58;25.98;69662.91;6345411;22;45398;-96
2023/05/18 12:45:30;;;;;;;;;4.67;3.00;;;;;28.07;26.86;69765.84;6323179;22;45391;-96
2023/05/18 12:48:26;;;;;;;;;5.00;3.33;;;;;26.99;27.54;69669.66;6346629;22;47472;-96
2023/05/18 12:50:54;;;;;;;;;5.00;3.33;;;;;27.50;26.74;69682.63;6329749;22;44951;-96
2023/05/18 12:53:23;;;;;;;;;1.67;1.00;;;;;26.55;26.03;69639.44;6347968;22;45228;-96
2023/05/18 12:55:56;;;;;;;;;4.33;3.00;;;;;27.26;26.02;69630.75;6345224;22;45548;-95
2023/05/18 12:58:22;;;;;;;;;3.00;3.00;;;;;27.38;26.44;69673.75;6345307;22;47100;-95
2023/05/18 13:00:47;;;;;;;;;3.00;1.67;;;;;27.22;26.52;69785.59;6375923;22;45336;-94
2023/05/18 13:03:20;;;;;;;;;2.00;2.00;;;;;26.77;26.40;69632.56;6372761;22;45404;-93
2023/05/18 13:06:04;;;;;;;;;4.00;2.33;;;;;26.99;27.04;69759.25;6341372;22;45318;-92
2023/05/18 13:08:30;;;;;;;;;2.33;2.33;;;;;26.94;26.68;69696.88;6341832;22;47427;-93
2023/05/18 13:11:01;;;;;;;;;5.00;3.00;;;;;26.85;27.04;69688.25;6369576;22;45372;-95
2023/05/18 13:13:26;;;;;;;;;3.00;3.00;;;;;26.68;26.70;69687.53;6342906;22;45742;-92
2023/05/18 13:15:52;;;;;;;;;3.00;3.00;;;;;26.57;27.10;69655.38;6343285;22;45368;-93
2023/05/18 13:18:17;;;;;;;;;4.00;3.00;;;;;26.28;26.35;69603.53;6343736;22;47226;-94
2023/05/18 13:20:43;;;;;;;;;4.00;4.00;;;;;26.60;25.85;69656.25;6339605;22;45581;-92
2023/05/18 13:23:14;;;;;;;;;4.67;3.00;;;;;26.24;25.46;69571.06;6368369;22;45316;-94
2023/05/18 13:25:40;;;;;;;;;2.00;2.00;;;;;26.33;25.87;69574.25;6344190;22;45768;-92
2023/05/18 13:28:09;;;;;;;;;3.67;3.33;;;;;26.37;25.60;69577.84;6368355;22;46756;-92
2023/05/18 13:30:35;;;;;;;;;3.33;3.00;;;;;26.30;26.89;69646.59;6371414;22;45523;-92
2023/05/18 13:33:00;;;;;;;;;44.33;36.33;;;;;26.22;27.05;69679.84;6340604;22;45381;-89
2023/05/18 13:35:26;;;;;;;;;6.00;5.00;;;;;25.87;27.58;69631.69;6339597;22;45327;-91
2023/05/18 13:37:53;;;;;;;;;5.00;4.00;;;;;25.75;27.71;69674.22;6339427;22;47250;-91
2023/05/18 13:40:22;;;;;;;;;4.00;4.00;;;;;25.73;28.36;69630.59;6338544;22;45548;-89
2023/05/18 13:42:48;;;;;;;;;6.00;4.00;;;;;25.49;28.17;69609.13;6339261;22;45356;-95
2023/05/18 13:49:12;;;;;;;;;5.67;4.00;;;;;24.70;29.07;69513.25;6365698;22;46451;-93
2023/05/18 13:51:40;;;;;;;;;5.00;2.00;;;;;25.10;28.39;69687.00;6309637;22;45523;-92
2023/05/18 13:54:09;;;;;;;;;3.33;3.33;;;;;25.26;27.98;69568.09;6339444;22;45521;-91
2023/05/18 13:57:07;;;;;;;;;3.33;3.33;;;;;25.50;28.68;69704.53;6339247;22;45716;-91
2023/05/18 14:00:11;;;;;;;;;4.33;2.00;;;;;24.38;28.34;69503.84;6239109;22;45550;-91
2023/05/18 14:03:09;;;;;;;;;3.33;3.00;;;;;24.34;28.90;69547.13;6180300;23;45412;-94
2023/05/18 14:10:44;;;;;;;;;4.33;4.33;;;;;24.70;28.64;69616.63;6337082;22;45381;-84
2023/05/18 14:13:10;;;;;;;;;4.33;3.67;;;;;24.59;28.83;69531.06;6366283;22;45322;-84
2023/05/18 14:15:37;;;;;;;;;2.33;2.00;;;;;24.50;28.73;69544.06;6365878;22;45371;-83
2023/05/18 14:18:16;;;;;;;;;2.33;2.33;;;;;25.10;29.12;69644.31;6364885;22;45581;-82
2023/05/18 14:20:41;;;;;;;;;3.33;3.33;;;;;25.05;29.44;69649.16;6362073;22;45412;-85
2023/05/18 14:23:06;;;;;;;;;5.00;3.00;;;;;24.46;29.59;69636.59;6365435;22;45370;-84
2023/05/18 14:25:32;;;;;;;;;4.33;2.00;;;;;24.32;29.25;69675.09;6337873;22;45366;-84
2023/05/18 14:27:57;;;;;;;;;6.00;4.00;;;;;24.90;29.34;69636.63;6365527;22;45589;-86
2023/05/18 14:30:23;;;;;;;;;2.67;2.33;;;;;24.83;30.11;69634.88;6337482;22;46851;-83
2023/05/18 14:32:48;;;;;;;;;4.00;3.00;;;;;24.76;29.50;69631.31;6366057;22;45375;-85
2023/05/18 14:35:14;;;;;;;;;4.67;3.00;;;;;24.60;29.46;69637.13;6363526;22;45402;-84
2023/05/18 14:37:45;;;;;;;;;2.00;2.00;;;;;24.39;29.19;69572.63;6336045;22;45806;-85
2023/05/18 14:40:10;;;;;;;;;3.00;3.00;;;;;24.59;29.71;69603.47;6364858;22;46389;-85
2023/05/18 14:42:36;;;;;;;;;6.00;3.00;;;;;24.21;29.55;69589.56;6366943;22;45381;-85
2023/05/18 14:45:01;;;;;;;;;2.00;2.00;;;;;24.52;29.43;69576.19;6366790;22;45382;-86
2023/05/18 14:47:27;;;;;;;;;3.00;3.00;;;;;23.89;30.08;69635.06;6366383;22;45526;-85
2023/05/18 14:49:52;;;;;;;;;4.00;3.00;;;;;24.05;30.04;69467.16;6363573;22;48106;-86
2023/05/18 14:52:17;;;;;;;;;1.67;1.33;;;;;24.39;29.55;69637.50;6366262;22;45345;-85
2023/05/18 14:54:43;;;;;;;;;1.67;1.67;;;;;23.64;30.47;69579.28;6366851;22;45360;-85
2023/05/18 14:57:08;;;;;;;;;3.00;3.00;;;;;24.10;30.07;69643.97;6366878;22;45529;-85
2023/05/18 14:59:33;;;;;;;;;3.33;3.33;;;;;23.85;29.94;69543.81;6366593;22;46229;-86
2023/05/18 15:01:59;;;;;;;;;2.00;2.00;;;;;23.54;30.10;69521.44;6338426;22;45365;-85
2023/05/18 15:04:24;;;;;;;;;2.67;2.67;;;;;24.10;30.00;69646.66;6366475;22;45593;-86
2023/05/18 15:06:50;;;;;;;;;3.00;3.00;;;;;23.70;29.76;69572.97;6367975;22;45465;-86
2023/05/18 15:09:17;;;;;;;;;3.00;3.00;;;;;24.10;29.92;69541.28;6366614;22;47440;-86
2023/05/18 15:11:42;;;;;;;;;2.00;2.00;;;;;23.36;30.03;69563.19;6366657;22;45925;-85
2023/05/18 15:14:07;;;;;;;;;3.00;3.00;;;;;23.97;29.77;69637.09;6367169;22;46023;-85
2023/05/18 15:16:33;;;;;;;;;2.33;2.33;;;;;23.43;30.56;69498.09;6338964;22;45422;-85
2023/05/18 15:18:58;;;;;;;;;2.00;2.00;;;;;23.91;30.56;69578.59;6366233;22;45896;-86
2023/05/18 15:21:23;;;;;;;;;2.00;2.00;;;;;23.41;30.04;69476.22;6366633;22;45369;-85
2023/05/18 15:23:49;;;;;;;;;2.00;2.00;;;;;23.10;30.58;69432.88;6367577;22;45431;-86
2023/05/18 15:26:14;;;;;;;;;2.00;2.00;;;;;23.68;30.77;69519.28;6367964;22;45356;-85
2023/05/18 15:28:42;;;;;;;;;4.00;2.00;;;;;23.75;30.77;69527.06;6367199;22;46082;-85
2023/05/18 15:31:08;;;;;;;;;4.00;3.00;;;;;23.07;30.66;69461.69;6367246;22;45418;-85
2023/05/18 15:33:35;;;;;;;;;3.00;3.00;;;;;23.15;30.40;69514.41;6367116;22;45378;-84
2023/05/18 15:36:00;;;;;;;;;2.67;2.67;;;;;22.79;31.06;69488.16;6367284;22;45459;-86
2023/05/18 15:38:26;;;;;;;;;2.00;2.00;;;;;23.40;31.46;69543.09;6367041;22;45917;-85
2023/05/18 15:40:51;;;;;;;;;4.00;3.33;;;;;23.55;31.08;69501.66;6338505;22;45528;-86
2023/05/18 15:43:16;;;;;;;;;3.33;3.33;;;;;22.45;31.87;69388.81;6363138;22;45447;-82
2023/05/18 15:45:42;;;;;;;;;3.33;3.33;;;;;23.36;31.92;69582.09;6366996;22;45444;-82
2023/05/18 15:48:07;;;;;;;;;5.00;4.00;;;;;23.29;31.92;69548.84;6366539;22;45781;-82
2023/05/18 15:50:33;;;;;;;;;3.67;3.33;;;;;23.38;31.91;69559.59;6366490;22;45342;-82
2023/05/18 15:52:58;;;;;;;;;3.00;3.00;;;;;23.30;31.13;69588.44;6366828;22;45467;-82
2023/05/18 15:55:23;;;;;;;;;2.00;2.00;;;;;23.27;31.07;69544.38;6367400;22;45326;-82
2023/05/18 15:57:48;;;;;;;;;3.00;3.00;;;;;23.23;31.58;69523.38;6366255;22;46528;-82
2023/05/18 16:00:14;;;;;;;;;2.00;2.00;;;;;22.94;31.31;69497.38;6368113;22;45905;-82
2023/05/18 16:02:39;;;;;;;;;4.00;4.00;;;;;22.93;31.18;69521.06;6368109;22;45428;-82
2023/05/18 16:05:05;;;;;;;;;6.00;4.00;;;;;23.07;31.78;69506.97;6368654;22;45447;-82
2023/05/18 16:07:30;;;;;;;;;1.00;1.00;;;;;22.86;31.78;69545.06;6367576;22;46792;-82
2023/05/18 16:09:56;;;;;;;;;4.00;3.00;;;;;22.88;31.61;69550.16;6339441;22;45890;-82
2023/05/18 16:12:22;;;;;;;;;3.00;3.00;;;;;22.94;32.05;69524.97;6367972;22;45437;-82
2023/05/18 16:14:47;;;;;;;;;2.33;2.33;;;;;22.91;32.10;69501.88;6368925;22;45259;-82
2023/05/18 16:17:12;;;;;;;;;4.00;4.00;;;;;22.77;31.87;69512.72;6367846;22;45982;-82
2023/05/18 16:19:38;;;;;;;;;3.00;3.00;;;;;22.67;31.77;69541.22;6368015;22;45630;-82
2023/05/18 16:22:03;;;;;;;;;4.33;3.00;;;;;22.55;31.86;69484.91;6368630;22;45340;-83
2023/05/18 16:24:28;;;;;;;;;6.00;4.00;;;;;22.61;32.37;69490.91;6368458;22;45431;-82
2023/05/18 16:26:54;;;;;;;;;3.00;3.00;;;;;22.70;32.76;69520.53;6367960;22;45616;-82
2023/05/18 16:29:19;;;;;;;;;8.00;5.00;;;;;;;;6368228;22;45289;-82
2023/05/18 16:31:44;;;;;;;;;4.00;2.00;;;;;22.51;32.97;69501.69;6367742;22;45316;-82
2023/05/18 16:34:10;;;;;;;;;3.00;3.00;;;;;22.42;32.68;69493.63;6368780;22;45823;-82
2023/05/18 16:36:35;;;;;;;;;2.00;1.67;;;;;22.36;32.76;69539.75;6367437;22;52194;-82
2023/05/18 16:39:01;;;;;;;;;3.00;3.00;;;;;22.29;32.65;69532.59;6339389;22;46265;-82
2023/05/18 16:41:27;;;;;;;;;4.33;4.33;;;;;22.40;33.11;69469.69;6339731;22;45697;-83
2023/05/18 16:43:52;;;;;;;;;3.00;3.00;;;;;22.42;32.73;69469.38;6368543;22;45366;-82
2023/05/18 16:46:18;;;;;;;;;4.67;4.67;;;;;22.39;32.66;69524.50;6367564;22;45502;-82
2023/05/18 16:48:44;;;;;;;;;5.33;4.00;;;;;22.31;33.10;69499.94;6339145;22;45511;-82
2023/05/18 16:51:09;;;;;;;;;4.00;4.00;;;;;22.18;33.25;69473.59;6368293;22;45390;-82
2023/05/18 16:53:35;;;;;;;;;4.33;4.33;;;;;21.90;32.85;69425.16;6368603;22;45440;-82